Time;durP1;ratioP1;P1;durP2;ratioP2;P2;SDS_P1;SDS_P2;PMS_P1;PMS_P2;Temp;Humidity;BMP_temperature;BMP_pressure;BME280_temperature;BME280_humidity;BME280_pressure;Samples;Min_cycle;Max_cycle;Signal;HPM_P1;HPM_P2
2023/04/06 00:01:22;;;;;;;9.75;5.75;;;;;;;3.90;46.30;100711.81;10269594;29;20044;-77
2023/04/06 00:06:26;;;;;;;9.57;6.00;;;;;;;3.78;46.60;100701.78;10247354;29;20054;-77
2023/04/06 00:11:30;;;;;;;7.93;6.00;;;;;;;3.83;46.91;100702.41;10250807;28;20039;-79
2023/04/06 00:16:33;;;;;;;8.50;5.78;;;;;;;3.76;47.16;100693.00;10261634;28;20044;-77
2023/04/06 00:21:36;;;;;;;11.35;6.28;;;;;;;3.64;47.39;100681.16;10258379;29;20376;-78
2023/04/06 00:26:40;;;;;;;7.53;5.70;;;;;;;3.56;47.50;100670.91;10234982;28;20031;-78
2023/04/06 00:31:43;;;;;;;16.25;6.43;;;;;;;3.44;47.77;100668.84;10268190;28;20071;-79
2023/04/06 00:36:46;;;;;;;10.43;6.15;;;;;;;3.33;47.81;100655.19;10261410;29;20074;-80
2023/04/06 00:41:53;;;;;;;8.45;6.10;;;;;;;3.30;48.33;100664.16;10266025;29;20076;-78
2023/04/06 00:46:56;;;;;;;9.18;5.82;;;;;;;3.32;48.23;100664.09;10246239;28;20047;-78
2023/04/06 00:51:59;;;;;;;8.68;6.35;;;;;;;3.24;48.43;100659.16;10242817;28;20076;-78
2023/04/06 00:57:03;;;;;;;8.60;6.18;;;;;;;3.14;48.41;100653.38;10245579;29;20056;-79
2023/04/06 01:02:07;;;;;;;7.03;5.10;;;;;;;3.04;48.75;100654.72;10259667;28;20035;-78
2023/04/06 02:35:45;;;;;;;10.23;6.50;;;;;;;2.43;49.99;100586.66;10282748;28;20015;-79
2023/04/06 02:40:48;;;;;;;10.40;6.68;;;;;;;2.34;50.22;100587.94;10301568;23;20410;-75
2023/04/06 02:45:57;;;;;;;10.52;5.88;;;;;;;2.32;50.36;100595.09;10269519;28;20054;-74
2023/04/06 02:51:02;;;;;;;8.95;6.97;;;;;;;2.29;50.52;100584.63;10270450;28;20044;-75
2023/04/06 02:56:06;;;;;;;11.07;6.93;;;;;;;2.30;50.29;100586.34;10271129;28;20067;-75
2023/04/06 03:01:18;;;;;;;9.63;6.43;;;;;;;2.23;50.70;100581.41;10262320;28;20074;-77
2023/04/06 03:06:26;;;;;;;11.88;6.90;;;;;;;2.19;51.15;100588.59;10259972;28;20130;-76
2023/04/06 03:11:33;;;;;;;14.50;6.97;;;;;;;2.22;51.09;100587.59;10274004;28;20510;-74
2023/04/06 03:16:36;;;;;;;14.32;7.00;;;;;;;2.17;51.32;100585.16;10260748;28;20589;-74
2023/04/06 03:21:41;;;;;;;8.70;6.82;;;;;;;2.03;51.50;100583.13;10252264;28;20114;-74
2023/04/06 03:26:45;;;;;;;12.73;7.43;;;;;;;2.08;51.40;100583.75;10264714;28;20043;-75
2023/04/06 03:31:48;;;;;;;16.17;8.25;;;;;;;2.05;51.43;100583.88;10251721;28;20478;-75
2023/04/06 03:37:10;;;;;;;12.10;8.15;;;;;;;1.99;51.67;100578.84;10256881;28;20105;-76
2023/04/06 03:42:21;;;;;;;12.47;7.60;;;;;;;1.99;51.79;100583.28;10267366;28;20130;-77
2023/04/06 03:47:35;;;;;;;15.77;8.20;;;;;;;1.89;52.25;100578.41;10269548;28;20524;-75
2023/04/06 03:52:42;;;;;;;13.60;8.27;;;;;;;1.89;52.12;100583.69;10272309;28;20414;-79
2023/04/06 03:57:45;;;;;;;11.27;7.70;;;;;;;1.87;52.32;100584.69;10266615;28;20506;-76
2023/04/06 04:02:48;;;;;;;14.55;8.80;;;;;;;1.79;52.45;100587.63;10264119;28;20094;-75
2023/04/06 04:07:52;;;;;;;16.88;8.60;;;;;;;1.80;52.61;100588.50;10272132;28;20062;-76
2023/04/06 04:12:59;;;;;;;12.77;7.82;;;;;;;1.74;52.69;100581.66;10270041;28;20046;-76
2023/04/06 04:18:02;;;;;;;12.35;8.55;;;;;;;1.66;52.66;100583.75;10264050;28;20061;-75
2023/04/06 04:23:06;;;;;;;15.77;8.35;;;;;;;1.68;52.92;100589.88;10269076;28;20046;-74
2023/04/06 04:28:10;;;;;;;14.68;8.45;;;;;;;1.63;52.86;100590.03;10266230;28;20051;-74
2023/04/06 04:33:15;;;;;;;11.27;8.82;;;;;;;1.63;53.02;100582.09;10273068;28;20051;-75
2023/04/06 04:38:21;;;;;;;13.93;8.80;;;;;;;1.58;53.32;100583.22;10273764;28;20482;-75
2023/04/06 04:43:28;;;;;;;11.43;8.18;;;;;;;1.53;53.46;100586.03;10234189;28;1129049;-77
2023/04/06 04:48:35;;;;;;;12.73;8.68;;;;;;;1.44;53.54;100589.06;10268674;28;20533;-74
2023/04/06 04:53:42;;;;;;;11.00;8.43;;;;;;;1.50;53.72;100586.16;10270320;28;20035;-75
2023/04/06 04:58:55;;;;;;;11.52;8.35;;;;;;;1.46;53.99;100588.09;10267409;28;20398;-75
2023/04/06 05:04:00;;;;;;;13.70;8.57;;;;;;;1.58;53.60;100586.72;10257771;28;20044;-74
2023/04/06 05:09:04;;;;;;;15.55;9.30;;;;;;;1.50;53.52;100592.31;10272421;28;20042;-74
2023/04/06 05:14:08;;;;;;;15.77;8.90;;;;;;;1.53;53.81;100593.13;10277685;28;20043;-77
2023/04/06 05:19:11;;;;;;;18.08;10.00;;;;;;;1.60;53.82;100602.56;10267658;28;20106;-74
2023/04/06 05:24:20;;;;;;;13.88;10.10;;;;;;;1.57;53.93;100592.94;10272381;28;20047;-74
2023/04/06 05:29:25;;;;;;;13.00;8.88;;;;;;;1.65;54.18;100593.50;10273378;28;20073;-78
2023/04/06 05:34:28;;;;;;;17.42;8.88;;;;;;;1.75;53.57;100593.13;10266803;28;20106;-73
2023/04/06 05:39:33;;;;;;;14.93;9.43;;;;;;;1.72;53.82;100589.66;10274192;28;20129;-75
2023/04/06 05:44:38;;;;;;;12.82;9.27;;;;;;;1.67;54.11;100586.38;10273640;28;20070;-75
2023/04/06 05:49:45;;;;;;;16.77;9.60;;;;;;;1.98;53.56;100589.53;10269163;28;20057;-74
2023/04/06 05:54:58;;;;;;;13.10;7.75;;;;;;;2.10;55.48;100589.00;10253463;28;20061;-75
2023/04/06 06:00:03;;;;;;;18.88;7.85;;;;;;;2.49;54.49;100593.50;10199412;28;20055;-76
2023/04/06 06:05:20;;;;;;;13.32;8.70;;;;;;;2.90;53.08;100593.47;10202976;28;20063;-75
2023/04/06 06:10:26;;;;;;;12.70;7.18;;;;;;;3.11;51.92;100584.50;10204132;28;20190;-76
2023/04/06 06:15:30;;;;;;;9.85;6.85;;;;;;;3.36;51.00;100580.69;10200463;28;20506;-74
2023/04/06 06:20:33;;;;;;;14.95;8.30;;;;;;;3.57;50.26;100573.50;10192261;28;20369;-78
2023/04/06 06:25:41;;;;;;;13.88;7.53;;;;;;;3.77;50.37;100572.50;10198416;28;21268;-75
2023/04/06 06:30:44;;;;;;;12.27;8.93;;;;;;;3.92;49.95;100577.03;10189032;28;20054;-79
2023/04/06 06:35:53;;;;;;;13.95;7.22;;;;;;;3.90;49.21;100581.59;10191912;28;20200;-75
2023/04/06 06:40:57;;;;;;;16.15;8.60;;;;;;;3.93;49.01;100589.41;10193539;28;20040;-77
2023/04/06 06:46:04;;;;;;;15.55;8.98;;;;;;;4.04;48.53;100592.38;10198486;28;20043;-78
2023/04/06 06:51:09;;;;;;;11.15;8.32;;;;;;;4.08;48.84;100580.63;10205035;28;20051;-75
2023/04/06 06:56:13;;;;;;;15.32;9.32;;;;;;;4.37;48.18;100580.97;10200690;28;20150;-76
2023/04/06 07:01:16;;;;;;;13.07;11.02;;;;;;;4.86;48.31;100581.03;10206216;28;20079;-75
2023/04/06 07:06:20;;;;;;;14.48;9.45;;;;;;;4.92;47.45;100580.69;10178675;28;20056;-77
2023/04/06 07:11:25;;;;;;;18.30;8.77;;;;;;;5.14;46.81;100569.75;10214030;28;20126;-75
2023/04/06 07:16:28;;;;;;;14.15;8.45;;;;;;;5.48;46.17;100574.03;10237107;28;20156;-75
2023/04/06 07:21:30;;;;;;;13.82;8.77;;;;;;;5.48;46.30;100578.50;10237988;28;20054;-76
2023/04/06 07:26:35;;;;;;;19.80;9.88;;;;;;;5.86;45.92;100567.44;10235381;28;20513;-75
2023/04/06 07:31:40;;;;;;;12.77;9.07;;;;;;;6.56;45.18;100578.38;10231167;28;20055;-75
2023/04/06 07:36:43;;;;;;;14.57;8.95;;;;;;;6.93;44.08;100571.63;10233722;28;20051;-74
2023/04/06 07:41:47;;;;;;;14.27;9.20;;;;;;;7.38;43.94;100569.69;10233511;28;20189;-75
2023/04/06 07:46:51;;;;;;;18.52;9.43;;;;;;;7.28;43.04;100574.75;10229913;28;20082;-76
2023/04/06 07:51:57;;;;;;;15.15;8.77;;;;;;;7.22;42.67;100558.25;10226331;28;20046;-76
2023/04/06 07:57:01;;;;;;;14.50;9.02;;;;;;;7.53;43.36;100551.78;10240821;28;20049;-76
2023/04/06 08:02:05;;;;;;;13.35;9.55;;;;;;;7.80;43.09;100543.75;10224929;28;20077;-77
2023/04/06 08:07:08;;;;;;;13.27;8.35;;;;;;;8.71;42.68;100546.44;10202494;28;20059;-75
2023/04/06 08:12:12;;;;;;;13.48;8.48;;;;;;;9.05;42.24;100544.00;10191988;28;20141;-75
2023/04/06 08:17:15;;;;;;;11.40;8.40;;;;;;;9.31;40.63;100539.44;10196223;28;20471;-75
2023/04/06 08:22:18;;;;;;;14.18;8.65;;;;;;;9.32;40.74;100546.50;10196736;28;20055;-75
2023/04/06 08:27:22;;;;;;;14.38;8.63;;;;;;;9.47;41.08;100541.88;10199209;28;20140;-75
2023/04/06 08:32:26;;;;;;;11.88;8.98;;;;;;;10.29;40.51;100534.78;10204818;28;20154;-76
2023/04/06 08:37:29;;;;;;;16.13;8.88;;;;;;;10.83;38.47;100531.41;10189142;28;20495;-75
2023/04/06 08:42:40;;;;;;;19.58;8.93;;;;;;;10.75;38.69;100533.84;10206444;28;20050;-75
2023/04/06 08:47:43;;;;;;;11.63;9.02;;;;;;;11.03;39.02;100527.09;10189272;28;20051;-75
2023/04/06 08:52:48;;;;;;;11.63;8.73;;;;;;;11.46;37.12;100512.00;10203569;28;20092;-75
2023/04/06 08:57:54;;;;;;;12.02;8.40;;;;;;;11.44;36.61;100512.16;10207212;28;20052;-76
2023/04/06 09:02:58;;;;;;;14.73;8.77;;;;;;;11.84;37.63;100507.94;10201009;28;20059;-75
2023/04/06 09:08:02;;;;;;;14.25;9.18;;;;;;;12.48;37.20;100509.66;10203053;28;20518;-76
2023/04/06 09:13:06;;;;;;;13.20;8.27;;;;;;;12.20;35.74;100501.25;10188437;28;20099;-76
2023/04/06 09:18:09;;;;;;;14.20;7.68;;;;;;;12.72;35.20;100488.66;10202231;28;20087;-76
2023/04/06 09:23:18;;;;;;;12.27;8.15;;;;;;;13.12;35.26;100489.66;10195264;28;20106;-77
2023/04/06 09:28:23;;;;;;;10.50;7.72;;;;;;;13.22;34.04;100502.19;10195118;28;20059;-75
2023/04/06 09:33:26;;;;;;;9.82;8.13;;;;;;;13.07;34.48;100492.75;10257434;23;20601;-83
2023/04/06 09:38:28;;;;;;;10.52;9.05;;;;;;;13.26;34.31;100476.59;10285936;28;20066;-79
2023/04/06 09:43:33;;;;;;;12.77;8.57;;;;;;;13.81;33.83;100481.50;10287528;28;20077;-83
2023/04/06 09:48:36;;;;;;;12.35;8.95;;;;;;;14.34;33.43;100477.41;10291054;28;20106;-80
2023/04/06 09:53:42;;;;;;;12.82;8.77;;;;;;;14.53;32.84;100474.69;10283810;28;20061;-81
2023/04/06 09:58:49;;;;;;;13.73;8.90;;;;;;;14.28;32.07;100478.84;10269612;28;20090;-83
2023/04/06 10:03:57;;;;;;;10.55;8.40;;;;;;;13.97;30.89;100462.00;10279501;28;20039;-82
2023/04/06 10:09:04;;;;;;;14.10;10.15;;;;;;;14.58;29.67;100449.91;10267379;28;20078;-83
2023/04/06 10:14:08;;;;;;;14.50;10.57;;;;;;;14.70;28.78;100440.63;10276658;28;20446;-81
2023/04/06 10:19:17;;;;;;;17.17;9.25;;;;;;;14.48;28.77;100449.09;10279689;28;20043;-81
2023/04/06 10:24:20;;;;;;;13.70;9.55;;;;;;;14.39;28.59;100464.34;10275786;28;20066;-80
2023/04/06 10:29:24;;;;;;;15.30;9.75;;;;;;;14.39;28.59;100453.53;10289985;28;20090;-81
2023/04/06 10:40:19;;;;;;;16.50;11.02;;;;;;;14.29;28.59;100463.50;11201457;23;20046;-76
2023/04/06 10:45:26;;;;;;;18.50;10.93;;;;;;;14.67;28.00;100454.41;10328868;28;20045;-78
2023/04/06 10:50:30;;;;;;;15.15;10.50;;;;;;;14.94;28.84;100442.75;10333139;28;20482;-77
2023/04/06 10:55:35;;;;;;;21.23;10.48;;;;;;;15.23;28.05;100439.03;10328603;28;20053;-77
2023/04/06 11:00:45;;;;;;;16.27;10.23;;;;;;;16.06;28.10;100434.19;10341351;28;20042;-78
2023/04/06 11:05:52;;;;;;;17.55;10.82;;;;;;;16.98;26.49;100421.78;10327881;28;20047;-79
2023/04/06 11:11:06;;;;;;;14.68;9.57;;;;;;;16.02;27.03;100426.53;10326406;28;20062;-76
2023/04/06 11:16:15;;;;;;;15.10;9.75;;;;;;;16.16;27.42;100423.25;10337643;28;20034;-78
2023/04/06 11:21:18;;;;;;;12.60;9.07;;;;;;;17.89;25.36;100411.88;10323217;28;20042;-77
2023/04/06 11:26:20;;;;;;;14.18;9.57;;;;;;;17.51;25.90;100411.53;10335217;28;20121;-78
2023/04/06 11:31:27;;;;;;;14.68;9.70;;;;;;;17.68;25.60;100399.66;10324206;28;20047;-77
2023/04/06 11:36:30;;;;;;;12.82;9.18;;;;;;;17.92;26.38;100396.06;10333139;28;20047;-77
2023/04/06 11:41:33;;;;;;;12.80;10.30;;;;;;;18.46;25.05;100391.91;10344924;28;20043;-79
2023/04/06 11:46:37;;;;;;;16.75;11.07;;;;;;;17.67;25.81;100383.53;10323001;28;20467;-77
2023/04/06 11:51:40;;;;;;;18.58;11.63;;;;;;;17.49;26.01;100391.84;10332197;28;20050;-77
2023/04/06 11:56:47;;;;;;;14.73;10.55;;;;;;;17.93;25.84;100384.19;10322116;28;20173;-79
2023/04/06 12:01:51;;;;;;;13.95;10.73;;;;;;;19.01;25.44;100371.94;10330513;28;20073;-78
2023/04/06 12:06:55;;;;;;;13.50;9.88;;;;;;;20.78;23.87;100362.34;10328000;28;20121;-77
2023/04/06 12:11:58;;;;;;;23.10;9.88;;;;;;;15.59;28.04;100376.78;10322219;28;20058;-78
2023/04/06 12:17:02;;;;;;;15.98;11.30;;;;;;;17.07;26.79;100373.81;10328621;28;20042;-79
2023/04/06 12:22:05;;;;;;;13.80;10.40;;;;;;;16.25;27.03;100384.34;10323963;28;20047;-79
2023/04/06 12:27:10;;;;;;;14.63;8.98;;;;;;;16.94;25.16;100376.16;10325148;28;20077;-78
2023/04/06 12:32:15;;;;;;;13.63;9.82;;;;;;;17.63;24.62;100361.28;10318218;28;20043;-78
2023/04/06 12:37:17;;;;;;;14.35;9.70;;;;;;;18.77;24.39;100367.44;10330859;28;20032;-76
2023/04/06 12:42:20;;;;;;;16.10;10.57;;;;;;;18.01;24.24;100371.63;10315977;28;20125;-79
2023/04/06 12:47:26;;;;;;;13.82;10.00;;;;;;;19.48;23.21;100351.00;10329750;28;20066;-78
2023/04/06 12:52:31;;;;;;;13.32;7.95;;;;;;;17.75;22.27;100358.25;10326729;28;20065;-79
2023/04/06 12:57:34;;;;;;;12.77;8.95;;;;;;;18.88;22.09;100347.16;10332092;28;20053;-79
2023/04/06 13:02:38;;;;;;;12.77;8.73;;;;;;;17.91;23.58;100352.78;10337898;28;20077;-77
2023/04/06 13:07:41;;;;;;;14.18;9.60;;;;;;;18.40;22.79;100346.34;10319868;28;20031;-77
2023/04/06 13:12:44;;;;;;;11.63;8.38;;;;;;;18.97;21.35;100338.75;10335511;28;20052;-79
2023/04/06 13:17:48;;;;;;;11.25;8.13;;;;;;;18.96;21.01;100342.53;10327177;28;20047;-79
2023/04/06 13:22:51;;;;;;;12.50;7.35;;;;;;;18.28;20.54;100362.22;10332321;28;20050;-79
2023/04/06 13:27:54;;;;;;;9.25;6.95;;;;;;;17.39;21.38;100329.59;10328002;28;20038;-78
2023/04/06 13:32:58;;;;;;;10.60;7.32;;;;;;;17.03;22.76;100348.00;10326768;28;20078;-79
2023/04/06 13:38:01;;;;;;;16.77;8.85;;;;;;;16.25;23.84;100345.53;10326950;28;20039;-79
2023/04/06 13:43:04;;;;;;;10.50;8.10;;;;;;;16.18;24.17;100339.06;10321650;28;20051;-77
2023/04/06 13:48:08;;;;;;;14.43;8.48;;;;;;;16.14;24.16;100328.56;10329794;28;20125;-78
2023/04/06 13:53:11;;;;;;;16.83;10.00;;;;;;;15.80;26.62;100339.38;10346894;28;20054;-79
2023/04/06 13:58:14;;;;;;;14.15;9.65;;;;;;;15.77;25.98;100326.16;10346938;28;20045;-78
2023/04/06 14:03:18;;;;;;;13.80;9.50;;;;;;;15.66;24.67;100321.84;10327748;28;20052;-78
2023/04/06 14:08:21;;;;;;;13.70;8.77;;;;;;;16.70;23.78;100325.38;10322456;28;20069;-79
2023/04/06 14:13:24;;;;;;;13.90;8.98;;;;;;;17.20;22.91;100319.91;10296894;28;20051;-79
2023/04/06 14:18:30;;;;;;;13.30;8.75;;;;;;;16.93;23.09;100322.91;10292183;28;20050;-79
2023/04/06 14:23:35;;;;;;;13.68;9.35;;;;;;;15.49;25.74;100322.72;10301144;28;21252;-78
2023/04/06 14:28:38;;;;;;;15.43;10.00;;;;;;;14.68;26.11;100333.66;10285361;28;20049;-79
2023/04/06 14:33:42;;;;;;;14.18;9.23;;;;;;;14.91;27.34;100320.53;10305312;28;20050;-76
2023/04/06 14:38:47;;;;;;;17.52;10.25;;;;;;;14.96;26.45;100318.19;10294129;28;20074;-78
2023/04/06 14:43:52;;;;;;;16.30;10.35;;;;;;;15.35;25.46;100317.91;10290472;28;20055;-78
2023/04/06 14:48:57;;;;;;;19.65;11.55;;;;;;;14.97;26.51;100312.63;10307061;28;20517;-76
2023/04/06 14:54:02;;;;;;;18.33;11.48;;;;;;;15.47;26.89;100308.53;10304668;28;20113;-78
2023/04/06 14:59:05;;;;;;;16.95;11.40;;;;;;;15.08;26.73;100311.53;10307001;28;20043;-78
2023/04/06 15:04:09;;;;;;;18.52;11.65;;;;;;;14.70;28.07;100316.28;10308460;28;20054;-78
2023/04/06 15:09:13;;;;;;;19.27;11.32;;;;;;;14.27;28.05;100306.97;10332554;28;20092;-77
2023/04/06 15:14:15;;;;;;;20.23;12.73;;;;;;;14.10;28.42;100296.97;10326538;28;20081;-77
2023/04/06 15:19:20;;;;;;;22.75;13.43;;;;;;;14.64;28.49;100297.09;10300270;28;20045;-78
2023/04/06 15:24:22;;;;;;;20.50;12.52;;;;;;;15.26;27.87;100288.03;10282943;28;20590;-77
2023/04/06 15:29:26;;;;;;;18.50;12.70;;;;;;;16.05;27.26;100291.59;10291345;28;20046;-76
2023/04/06 15:34:32;;;;;;;14.77;9.98;;;;;;;16.71;26.73;100283.72;10289777;28;20050;-79
2023/04/06 15:39:36;;;;;;;29.80;13.63;;;;;;;16.37;26.74;100284.63;10280738;28;20050;-81
2023/04/06 15:44:39;;;;;;;24.67;13.68;;;;;;;15.98;26.98;100279.69;10292375;28;20043;-79
2023/04/06 15:49:43;;;;;;;19.48;12.77;;;;;;;15.59;27.23;100280.19;10278371;28;20049;-77
2023/04/06 15:54:46;;;;;;;18.85;11.23;;;;;;;14.41;28.63;100281.31;10294998;28;20154;-78
2023/04/06 15:59:49;;;;;;;19.13;12.45;;;;;;;14.53;29.26;100280.06;10287617;28;20055;-80
2023/04/06 16:04:56;;;;;;;22.17;13.70;;;;;;;14.84;28.50;100282.44;10287306;28;20059;-76
2023/04/06 16:09:59;;;;;;;20.98;11.63;;;;;;;14.69;28.39;100281.25;10282894;28;20065;-76
2023/04/06 16:15:02;;;;;;;24.58;12.55;;;;;;;14.59;29.17;100292.16;10282681;28;20124;-78
2023/04/06 16:20:08;;;;;;;18.05;11.65;;;;;;;14.66;29.66;100279.72;10288626;28;20517;-78
2023/04/06 16:25:11;;;;;;;19.58;11.23;;;;;;;14.31;28.96;100281.31;10286037;28;20058;-78
2023/04/06 16:30:14;;;;;;;19.40;11.90;;;;;;;14.13;29.33;100288.56;10292446;28;20043;-79
2023/04/06 16:35:19;;;;;;;15.95;10.80;;;;;;;14.09;29.67;100281.72;10289824;28;20150;-79
2023/04/06 16:40:22;;;;;;;19.27;10.18;;;;;;;13.90;30.08;100285.38;10296213;28;20202;-79
2023/04/06 16:45:25;;;;;;;18.10;10.88;;;;;;;13.86;30.05;100284.81;10284326;28;20058;-76
2023/04/06 16:50:29;;;;;;;16.70;9.65;;;;;;;13.69;29.45;100286.44;10288965;28;20054;-79
2023/04/06 16:55:32;;;;;;;18.95;9.65;;;;;;;13.74;30.01;100279.75;10294750;28;20044;-79
2023/04/06 17:00:36;;;;;;;20.67;9.93;;;;;;;13.57;30.19;100271.41;10284418;28;20054;-78
2023/04/06 17:05:40;;;;;;;16.45;9.50;;;;;;;13.63;30.79;100268.16;10298415;28;20077;-77
2023/04/06 17:10:43;;;;;;;16.50;8.73;;;;;;;13.53;30.90;100275.41;10293683;28;20050;-76
2023/04/06 17:16:06;;;;;;;18.00;10.48;;;;;;;13.47;30.57;100276.00;10299046;28;20061;-78
2023/04/06 17:21:13;;;;;;;17.20;9.80;;;;;;;13.25;31.09;100271.75;10299135;28;20042;-78
2023/04/06 17:26:16;;;;;;;14.85;9.30;;;;;;;13.25;31.56;100278.00;10292774;28;20516;-79
2023/04/06 17:31:19;;;;;;;17.30;10.13;;;;;;;13.19;31.97;100275.88;10303743;28;20053;-77
2023/04/06 17:36:23;;;;;;;15.43;9.10;;;;;;;13.12;32.13;100274.75;10299162;28;20550;-77
2023/04/06 17:41:27;;;;;;;18.90;9.85;;;;;;;13.03;32.15;100279.16;10296991;28;20046;-76
2023/04/06 17:46:30;;;;;;;19.23;10.20;;;;;;;12.93;32.40;100289.09;10304918;28;20052;-77
2023/04/06 17:51:34;;;;;;;18.40;10.60;;;;;;;12.82;33.03;100291.94;10296851;28;20050;-77
2023/04/06 17:56:37;;;;;;;15.55;9.57;;;;;;;12.72;32.58;100294.59;10280776;28;20089;-78
2023/04/06 18:01:40;;;;;;;14.55;9.68;;;;;;;11.99;35.83;100307.44;10295233;28;20058;-76
2023/04/06 18:06:45;;;;;;;19.38;10.73;;;;;;;11.22;38.18;100316.78;10292658;28;20042;-78
2023/04/06 18:11:47;;;;;;;18.55;10.95;;;;;;;11.39;39.74;100317.19;10291337;28;20073;-78
2023/04/06 18:16:50;;;;;;;17.40;11.25;;;;;;;11.41;40.52;100324.13;10321194;28;20082;-77
2023/04/06 18:21:54;;;;;;;16.00;11.20;;;;;;;11.12;41.49;100325.72;10283060;28;20051;-78
2023/04/06 18:26:57;;;;;;;16.63;10.68;;;;;;;11.36;40.47;100333.56;10295944;28;20050;-78
2023/04/06 18:32:00;;;;;;;15.93;10.73;;;;;;;11.59;40.01;100331.59;10290253;28;20049;-79
2023/04/06 18:37:04;;;;;;;15.85;10.52;;;;;;;11.55;39.75;100336.41;10293467;28;20619;-77
2023/04/06 18:42:07;;;;;;;20.30;11.52;;;;;;;11.63;39.72;100349.19;10313131;28;20054;-73
2023/04/06 18:47:10;;;;;;;15.77;11.45;;;;;;;11.59;39.85;100339.66;10294565;28;20057;-79
2023/04/06 18:52:14;;;;;;;14.45;9.93;;;;;;;11.42;39.79;100341.13;10292103;28;20062;-78
2023/04/06 18:57:17;;;;;;;16.17;10.63;;;;;;;11.58;39.75;100346.88;10286397;28;20106;-76
2023/04/06 19:02:20;;;;;;;16.42;10.93;;;;;;;11.53;39.65;100343.75;10299037;28;20091;-79
2023/04/06 19:07:25;;;;;;;14.57;10.10;;;;;;;11.56;39.97;100346.16;10287888;28;20047;-78
2023/04/06 19:12:28;;;;;;;14.10;9.32;;;;;;;11.30;40.59;100356.47;10294675;28;20054;-79
2023/04/06 19:17:31;;;;;;;19.27;10.00;;;;;;;11.27;40.82;100359.38;10278469;28;20069;-79
2023/04/06 19:22:36;;;;;;;13.10;9.98;;;;;;;11.33;40.34;100345.44;10293665;28;20096;-77
2023/04/06 19:27:39;;;;;;;13.57;9.23;;;;;;;11.30;40.53;100364.53;10288660;28;20093;-77
2023/04/06 19:32:42;;;;;;;15.32;9.13;;;;;;;10.30;43.50;100361.94;10279952;28;20684;-77
2023/04/06 19:37:46;;;;;;;12.63;9.20;;;;;;;10.20;45.17;100360.13;10289041;28;20050;-78
2023/04/06 19:42:49;;;;;;;14.10;9.90;;;;;;;10.09;45.81;100367.22;10292416;28;20050;-78
2023/04/06 19:47:52;;;;;;;14.32;9.10;;;;;;;9.83;46.77;100369.22;10294812;28;20124;-77
2023/04/06 19:52:58;;;;;;;17.98;10.13;;;;;;;9.92;46.74;100373.03;10296937;28;20049;-78
2023/04/06 19:58:01;;;;;;;16.30;9.07;;;;;;;9.96;47.17;100376.38;10290478;28;20048;-77
2023/04/06 20:03:04;;;;;;;16.13;8.45;;;;;;;10.00;47.20;100369.75;10288379;28;20141;-76
2023/04/06 20:08:09;;;;;;;15.25;9.20;;;;;;;9.73;48.52;100373.59;10271200;28;20055;-79
2023/04/06 20:13:12;;;;;;;14.15;10.15;;;;;;;9.71;48.87;100368.38;10279522;28;20113;-76
2023/04/06 20:18:15;;;;;;;16.20;11.82;;;;;;;9.87;48.87;100368.06;10299611;28;20046;-77
2023/04/06 20:23:19;;;;;;;15.75;11.85;;;;;;;10.00;49.03;100367.09;10299547;28;20110;-77
2023/04/06 20:28:22;;;;;;;18.73;12.10;;;;;;;10.26;48.76;100367.72;10289854;28;20141;-77
2023/04/06 20:33:26;;;;;;;16.70;11.95;;;;;;;10.06;49.69;100380.84;10289432;28;20429;-77
2023/04/06 20:38:30;;;;;;;;;;;;;;;10.04;49.83;100380.16;10281757;28;20059;-76
2023/04/06 20:43:35;;;;;;;16.98;10.45;;;;;;;9.85;50.40;100379.84;10285469;28;19925;-77
2023/04/06 20:48:38;;;;;;;14.70;10.13;;;;;;;9.75;51.24;100370.81;10282841;28;20046;-77
2023/04/06 20:53:42;;;;;;;15.82;10.32;;;;;;;9.90;50.53;100369.63;10278760;28;20118;-77
2023/04/06 20:58:45;;;;;;;28.55;10.60;;;;;;;10.00;50.14;100375.97;10296130;28;20099;-77
2023/04/06 21:03:48;;;;;;;17.98;9.93;;;;;;;9.89;50.55;100384.88;10287769;28;20062;-78
2023/04/06 21:08:52;;;;;;;14.80;10.77;;;;;;;9.33;52.62;100381.19;10295784;28;20054;-77
2023/04/06 21:13:55;;;;;;;19.58;8.75;;;;;;;9.35;52.74;100363.13;10297190;28;20069;-76
2023/04/06 21:18:58;;;;;;;15.38;9.63;;;;;;;9.51;53.00;100371.72;10291307;28;20717;-77
2023/04/06 21:24:03;;;;;;;16.98;10.85;;;;;;;9.53;52.64;100356.38;10311542;28;20046;-79
2023/04/06 21:29:08;;;;;;;15.70;9.73;;;;;;;9.59;52.64;100360.41;10303896;28;20057;-77
2023/04/06 21:34:11;;;;;;;;;;;;;;;9.49;53.08;100357.59;10287243;28;20189;-77
2023/04/06 21:39:16;;;;;;;13.57;9.20;;;;;;;9.54;53.44;100352.69;10301052;28;20377;-77
2023/04/06 21:44:19;;;;;;;14.88;10.18;;;;;;;9.54;53.53;100352.69;10317483;28;20051;-77
2023/04/06 21:49:22;;;;;;;16.25;10.20;;;;;;;9.46;53.87;100360.47;10311056;28;20048;-77
2023/04/06 21:54:31;;;;;;;16.17;9.48;;;;;;;9.28;54.26;100360.06;10321633;28;20133;-77
2023/04/06 21:59:34;;;;;;;14.57;10.02;;;;;;;9.13;55.05;100355.88;10311570;28;20047;-79
2023/04/06 22:04:37;;;;;;;14.90;9.80;;;;;;;9.00;55.60;100353.28;10319693;28;20421;-76
2023/04/06 22:09:47;;;;;;;17.83;10.70;;;;;;;9.18;55.28;100353.69;10320816;28;20076;-77
2023/04/06 22:14:53;;;;;;;15.73;10.00;;;;;;;9.40;54.95;100351.09;10312656;28;20189;-76
2023/04/06 22:19:56;;;;;;;15.55;10.38;;;;;;;9.49;54.80;100349.53;10334066;28;20073;-77
2023/04/06 22:25:00;;;;;;;15.48;10.93;;;;;;;9.36;54.95;100341.59;10316938;28;20038;-77
2023/04/06 22:30:03;;;;;;;16.75;11.27;;;;;;;9.32;55.33;100342.78;10333156;28;20469;-76
2023/04/06 22:35:07;;;;;;;19.77;10.57;;;;;;;9.38;56.18;100341.44;10322661;28;20047;-77
2023/04/06 22:40:12;;;;;;;17.90;11.13;;;;;;;9.32;56.99;100344.59;10317403;28;20035;-77
2023/04/06 22:45:15;;;;;;;19.55;11.35;;;;;;;9.26;59.24;100351.28;10326354;28;20134;-78
2023/04/06 22:50:18;;;;;;;17.88;11.30;;;;;;;8.94;60.70;100349.22;10313007;28;20070;-75
2023/04/06 22:55:22;;;;;;;18.25;11.85;;;;;;;8.79;62.34;100350.38;10327597;28;20437;-77
2023/04/06 23:00:25;;;;;;;16.65;11.13;;;;;;;8.61;63.21;100344.53;10318212;28;20093;-76
2023/04/06 23:05:28;;;;;;;16.23;12.02;;;;;;;8.64;65.04;100344.31;10325850;28;20050;-75
2023/04/06 23:10:32;;;;;;;16.77;11.98;;;;;;;8.52;64.94;100343.38;10318811;28;20070;-76
2023/04/06 23:15:35;;;;;;;17.83;12.32;;;;;;;8.43;65.87;100333.31;10326191;28;20449;-76
2023/04/06 23:20:39;;;;;;;13.68;10.55;;;;;;;8.47;65.94;100331.31;10324654;28;20047;-76
2023/04/06 23:25:43;;;;;;;15.88;10.73;;;;;;;8.44;65.12;100328.81;10317711;28;20041;-77
2023/04/06 23:30:46;;;;;;;16.02;10.30;;;;;;;8.45;65.00;100327.84;10327251;28;20117;-76
2023/04/06 23:35:49;;;;;;;16.48;10.88;;;;;;;8.38;65.23;100327.44;10326884;28;20117;-76
2023/04/06 23:40:53;;;;;;;16.20;10.65;;;;;;;8.35;65.35;100325.00;10322402;28;20120;-75
2023/04/06 23:45:56;;;;;;;15.77;10.57;;;;;;;8.29;65.75;100325.44;10319523;28;20070;-76
2023/04/06 23:50:59;;;;;;;17.10;10.40;;;;;;;8.33;66.08;100324.25;10322889;28;20041;-75
2023/04/06 23:56:03;;;;;;;16.13;10.05;;;;;;;8.14;65.72;100316.69;10328299;28;20054;-75
